createdAt,value
2023-05-10T00:00:23.523Z,7.10
2023-05-10T00:03:08.979Z,10.00
2023-05-10T00:05:36.608Z,6.60
2023-05-10T00:08:04.339Z,7.30
2023-05-10T00:10:31.945Z,7.60
2023-05-10T00:12:59.567Z,9.70
2023-05-10T00:15:27.233Z,8.00
2023-05-10T00:17:54.939Z,10.10
2023-05-10T00:20:22.624Z,6.60
2023-05-10T00:22:50.263Z,7.10
2023-05-10T00:25:17.897Z,8.00
2023-05-10T00:27:45.714Z,7.70
2023-05-10T00:30:13.526Z,7.10
2023-05-10T00:32:41.360Z,7.80
2023-05-10T00:35:09.455Z,9.90
2023-05-10T00:37:37.137Z,8.70
2023-05-10T00:40:05.982Z,7.40
2023-05-10T00:42:33.588Z,9.40
2023-05-10T00:45:01.381Z,7.80
2023-05-10T00:47:29.138Z,6.90
2023-05-10T00:49:56.941Z,10.40
2023-05-10T00:52:24.749Z,8.10
2023-05-10T00:54:53.314Z,8.30
2023-05-10T00:57:20.996Z,11.50
2023-05-10T00:59:49.138Z,9.70
2023-05-10T01:02:16.795Z,9.00
2023-05-10T01:04:44.818Z,7.90
2023-05-10T01:07:12.521Z,8.70
2023-05-10T01:09:40.269Z,9.70
2023-05-10T01:12:08.435Z,7.70
2023-05-10T01:14:37.358Z,8.90
2023-05-10T01:17:06.468Z,8.70
2023-05-10T01:19:36.059Z,9.40
2023-05-10T01:22:16.009Z,9.30
2023-05-10T01:25:21.371Z,8.80
2023-05-10T01:27:58.993Z,9.30
2023-05-10T01:31:00.763Z,8.60
2023-05-10T01:33:42.596Z,7.80
2023-05-10T01:36:20.202Z,9.40
2023-05-10T01:39:22.917Z,8.40
2023-05-10T01:41:51.993Z,7.50
2023-05-10T01:44:44.040Z,10.40
2023-05-10T01:47:38.275Z,9.00
2023-05-10T01:50:07.393Z,9.80
2023-05-10T01:52:38.955Z,8.70
2023-05-10T01:55:09.268Z,6.30
2023-05-10T01:57:37.869Z,9.00
2023-05-10T02:00:06.254Z,9.00
2023-05-10T02:02:35.505Z,8.10
2023-05-10T02:05:04.438Z,7.20
2023-05-10T02:07:32.029Z,8.40
2023-05-10T02:09:59.618Z,11.00
2023-05-10T02:12:28.237Z,9.90
2023-05-10T02:14:55.828Z,9.80
2023-05-10T02:17:23.604Z,8.60
2023-05-10T02:19:51.255Z,8.00
2023-05-10T02:22:18.849Z,12.30
2023-05-10T02:24:46.569Z,11.90
2023-05-10T02:27:14.186Z,9.50
2023-05-10T02:29:41.791Z,9.90
2023-05-10T02:32:10.126Z,10.70
2023-05-10T02:34:38.328Z,8.60
2023-05-10T02:37:06.997Z,11.40
2023-05-10T02:39:34.675Z,11.30
2023-05-10T02:42:02.577Z,12.60
2023-05-10T02:44:32.108Z,10.00
2023-05-10T02:47:00.008Z,10.60
2023-05-10T02:49:27.696Z,13.30
2023-05-10T02:51:57.845Z,10.70
2023-05-10T02:54:30.863Z,11.50
2023-05-10T02:57:00.487Z,10.30
2023-05-10T02:59:28.320Z,8.90
2023-05-10T03:01:56.159Z,11.30
2023-05-10T03:04:24.077Z,14.70
2023-05-10T03:06:51.779Z,13.20
2023-05-10T03:09:19.548Z,11.90
2023-05-10T03:12:03.176Z,12.50
2023-05-10T03:15:02.534Z,8.80
2023-05-10T03:17:48.027Z,9.90
2023-05-10T03:23:19.022Z,10.80
2023-05-10T03:25:48.132Z,11.60
2023-05-10T03:28:17.979Z,9.90
2023-05-10T03:30:45.597Z,13.60
2023-05-10T03:33:14.266Z,12.30
2023-05-10T03:35:42.036Z,13.40
2023-05-10T03:38:09.663Z,13.30
2023-05-10T03:40:37.669Z,15.60
2023-05-10T03:43:05.286Z,16.30
2023-05-10T03:45:32.997Z,15.90
2023-05-10T03:48:00.717Z,10.00
2023-05-10T03:50:28.667Z,10.60
2023-05-10T03:52:56.575Z,10.30
2023-05-10T03:55:24.585Z,10.50
2023-05-10T03:57:52.224Z,12.20
2023-05-10T04:00:20.176Z,8.80
2023-05-10T04:02:47.795Z,10.40
2023-05-10T04:05:15.831Z,13.90
2023-05-10T04:07:45.246Z,12.10
2023-05-10T04:10:13.143Z,12.80
2023-05-10T04:12:40.913Z,16.70
2023-05-10T04:15:09.361Z,14.90
2023-05-10T04:17:37.117Z,13.20
2023-05-10T04:20:05.663Z,14.20
2023-05-10T04:22:33.459Z,10.60
2023-05-10T04:25:01.072Z,16.00
2023-05-10T04:27:28.752Z,10.90
2023-05-10T04:29:56.337Z,14.50
2023-05-10T04:32:24.307Z,11.60
2023-05-10T04:34:52.361Z,14.40
2023-05-10T04:37:20.965Z,14.10
2023-05-10T04:39:48.707Z,9.70
2023-05-10T04:42:16.473Z,14.80
2023-05-10T04:44:44.596Z,9.60
2023-05-10T04:47:14.185Z,14.00
2023-05-10T04:49:41.798Z,12.30
2023-05-10T04:52:09.450Z,12.40
2023-05-10T04:54:37.074Z,13.20
2023-05-10T04:57:04.694Z,12.30
2023-05-10T04:59:32.330Z,11.40
2023-05-10T05:02:00.066Z,10.00
2023-05-10T05:04:27.807Z,10.50
2023-05-10T05:06:55.516Z,14.70
2023-05-10T05:09:23.126Z,14.50
2023-05-10T05:11:50.873Z,13.50
2023-05-10T05:14:18.556Z,12.10
2023-05-10T05:16:46.174Z,12.70
2023-05-10T05:19:13.784Z,12.70
2023-05-10T05:21:41.646Z,10.70
2023-05-10T05:24:09.622Z,9.10
2023-05-10T05:26:37.767Z,17.20
2023-05-10T05:29:05.614Z,11.20
2023-05-10T05:31:33.342Z,12.50
2023-05-10T05:34:01.117Z,14.60
2023-05-10T05:36:28.848Z,10.50
2023-05-10T05:38:56.441Z,9.80
2023-05-10T05:41:25.617Z,8.00
2023-05-10T05:43:53.223Z,10.40
2023-05-10T05:46:20.959Z,10.20
2023-05-10T05:48:48.626Z,13.50
2023-05-10T05:51:16.279Z,13.90
2023-05-10T05:53:44.017Z,9.90
2023-05-10T05:56:11.704Z,13.30
2023-05-10T05:58:39.466Z,8.90
2023-05-10T06:01:07.724Z,8.70
2023-05-10T06:03:35.586Z,10.70
2023-05-10T06:06:03.440Z,11.00
2023-05-10T06:08:31.268Z,7.70
2023-05-10T06:10:58.951Z,7.70
2023-05-10T06:13:29.946Z,13.90
2023-05-10T06:15:57.694Z,10.20
2023-05-10T06:18:25.572Z,10.20
2023-05-10T06:20:53.278Z,10.90
2023-05-10T06:23:20.908Z,7.60
2023-05-10T06:25:48.543Z,9.00
2023-05-10T06:28:16.209Z,8.20
2023-05-10T06:30:44.362Z,9.00
2023-05-10T06:33:12.094Z,7.70
2023-05-10T06:35:40.014Z,9.50
2023-05-10T06:38:07.673Z,8.70
2023-05-10T06:40:35.345Z,8.10
2023-05-10T06:43:03.005Z,5.20
2023-05-10T06:45:30.603Z,7.20
2023-05-10T06:47:58.293Z,9.00
2023-05-10T06:50:26.353Z,8.20
2023-05-10T06:52:54.103Z,9.90
2023-05-10T06:55:21.844Z,6.40
2023-05-10T06:57:49.558Z,7.40
2023-05-10T07:00:18.448Z,6.50
2023-05-10T07:02:46.606Z,6.50
2023-05-10T07:05:15.254Z,4.30
2023-05-10T07:07:43.392Z,5.20
2023-05-10T07:10:11.179Z,6.80
2023-05-10T07:12:39.495Z,5.00
2023-05-10T07:15:08.244Z,5.80
2023-05-10T07:17:35.940Z,6.60
2023-05-10T07:20:04.890Z,5.80
2023-05-10T07:22:32.461Z,5.90
2023-05-10T07:25:00.055Z,7.60
2023-05-10T07:27:27.669Z,3.90
2023-05-10T07:29:55.743Z,6.30
2023-05-10T07:32:23.545Z,5.70
2023-05-10T07:34:51.396Z,6.70
2023-05-10T07:37:19.556Z,4.90
2023-05-10T07:39:47.375Z,2.90
2023-05-10T07:42:15.057Z,3.20
2023-05-10T07:44:42.919Z,3.10
2023-05-10T07:47:10.743Z,4.70
2023-05-10T07:49:39.376Z,3.00
2023-05-10T07:52:07.005Z,3.50
2023-05-10T07:54:34.928Z,6.50
2023-05-10T07:57:02.600Z,4.00
2023-05-10T07:59:30.203Z,4.00
2023-05-10T08:01:57.824Z,5.70
2023-05-10T08:04:25.551Z,4.30
2023-05-10T08:06:53.245Z,4.40
2023-05-10T08:09:24.886Z,4.40
2023-05-10T08:11:52.880Z,3.80
2023-05-10T08:14:20.708Z,5.20
2023-05-10T08:16:48.326Z,5.10
2023-05-10T08:19:20.026Z,4.80
2023-05-10T08:21:48.222Z,4.20
2023-05-10T08:24:16.071Z,5.80
2023-05-10T08:26:43.720Z,5.10
2023-05-10T08:29:11.344Z,3.90
2023-05-10T08:31:39.052Z,3.50
2023-05-10T08:34:06.947Z,4.50
2023-05-10T08:36:34.608Z,6.00
2023-05-10T08:39:02.223Z,3.70
2023-05-10T08:41:29.909Z,3.80
2023-05-10T08:43:57.559Z,3.70
2023-05-10T08:46:27.592Z,7.80
2023-05-10T08:48:55.787Z,3.20
2023-05-10T08:51:24.955Z,5.50
2023-05-10T08:53:52.656Z,5.50
2023-05-10T08:56:21.367Z,3.60
2023-05-10T08:58:49.993Z,3.20
2023-05-10T09:01:18.242Z,5.70
2023-05-10T09:03:47.488Z,4.00
2023-05-10T09:06:15.485Z,6.50
2023-05-10T09:08:43.841Z,5.90
2023-05-10T09:11:13.682Z,3.10
2023-05-10T09:13:41.316Z,3.10
2023-05-10T09:16:20.276Z,4.20
2023-05-10T09:18:48.835Z,4.70
2023-05-10T09:21:16.498Z,4.00
2023-05-10T09:23:48.037Z,4.00
2023-05-10T09:26:16.377Z,2.70
2023-05-10T09:28:54.244Z,2.50
2023-05-10T09:31:22.210Z,6.10
2023-05-10T09:33:50.649Z,5.70
2023-05-10T09:36:18.442Z,3.80
2023-05-10T09:38:50.470Z,3.40
2023-05-10T09:41:23.484Z,4.20
2023-05-10T09:43:51.462Z,4.40
2023-05-10T09:46:19.205Z,5.80
2023-05-10T09:48:48.621Z,4.70
2023-05-10T09:51:26.301Z,4.40
2023-05-10T09:54:14.203Z,3.70
2023-05-10T09:56:42.131Z,4.10
2023-05-10T09:59:13.149Z,5.40
2023-05-10T10:01:41.745Z,6.30
2023-05-10T10:04:10.547Z,5.30
2023-05-10T10:06:41.421Z,4.10
2023-05-10T10:09:09.557Z,4.90
2023-05-10T10:11:37.947Z,4.20
2023-05-10T10:14:06.312Z,3.50
2023-05-10T10:16:33.998Z,3.30
2023-05-10T10:19:01.879Z,2.60
2023-05-10T10:21:29.611Z,3.80
2023-05-10T10:23:57.253Z,6.20
2023-05-10T10:26:24.932Z,8.10
2023-05-10T10:29:08.283Z,8.50
2023-05-10T10:32:03.334Z,3.80
2023-05-10T10:34:30.999Z,3.40
2023-05-10T10:36:58.820Z,3.30
2023-05-10T10:39:26.676Z,3.60
2023-05-10T10:41:55.841Z,3.80
2023-05-10T10:44:23.633Z,3.00
2023-05-10T10:47:24.241Z,6.00
2023-05-10T10:49:53.619Z,8.00
2023-05-10T10:52:33.968Z,9.50
2023-05-10T10:55:12.258Z,7.20
2023-05-10T11:00:24.582Z,2.70
2023-05-10T11:02:56.078Z,4.50
2023-05-10T11:05:30.123Z,4.80
2023-05-10T11:08:00.038Z,4.40
2023-05-10T11:10:28.214Z,4.50
2023-05-10T11:13:02.623Z,4.60
2023-05-10T11:15:31.907Z,3.70
2023-05-10T11:17:59.648Z,9.30
2023-05-10T11:20:34.524Z,4.10
2023-05-10T11:23:13.008Z,3.50
2023-05-10T11:25:45.079Z,2.80
2023-05-10T11:30:41.364Z,3.70
2023-05-10T11:33:09.606Z,4.40
2023-05-10T11:35:43.216Z,2.80
2023-05-10T11:38:11.925Z,3.90
2023-05-10T11:40:40.190Z,3.20
2023-05-10T11:43:09.513Z,4.40
2023-05-10T11:45:37.258Z,4.40
2023-05-10T11:48:05.291Z,6.20
2023-05-10T11:50:33.613Z,5.50
2023-05-10T11:53:01.288Z,3.60
2023-05-10T11:55:31.194Z,3.20
2023-05-10T11:58:01.712Z,4.70
2023-05-10T12:00:29.533Z,4.30
2023-05-10T12:02:57.674Z,4.10
2023-05-10T12:05:25.413Z,4.90
2023-05-10T12:07:53.019Z,4.00
2023-05-10T12:10:27.475Z,4.20
2023-05-10T12:12:55.262Z,5.00
2023-05-10T12:15:24.497Z,3.10
2023-05-10T12:17:52.360Z,3.10
2023-05-10T12:20:22.019Z,4.50
2023-05-10T12:22:58.922Z,3.50
2023-05-10T12:27:59.026Z,4.10
2023-05-10T12:30:27.631Z,3.90
2023-05-10T12:33:00.511Z,7.50
2023-05-10T12:35:31.537Z,4.20
2023-05-10T12:37:59.285Z,3.60
2023-05-10T12:40:26.937Z,4.80
2023-05-10T12:42:54.564Z,2.90
2023-05-10T12:45:23.126Z,5.00
2023-05-10T12:47:50.802Z,4.90
2023-05-10T12:50:18.740Z,3.40
2023-05-10T12:52:46.533Z,3.00
2023-05-10T12:55:14.110Z,3.30
2023-05-10T12:57:41.754Z,3.60
2023-05-10T13:00:10.012Z,4.90
2023-05-10T13:02:37.823Z,3.10
2023-05-10T13:05:06.654Z,4.50
2023-05-10T13:07:34.447Z,5.40
2023-05-10T13:10:02.079Z,3.80
2023-05-10T13:12:30.360Z,4.30
2023-05-10T13:14:57.974Z,3.20
2023-05-10T13:17:26.497Z,4.30
2023-05-10T13:19:54.336Z,4.30
2023-05-10T13:22:32.459Z,4.60
2023-05-10T13:25:04.933Z,5.40
2023-05-10T13:27:32.533Z,4.30
2023-05-10T13:30:00.578Z,4.70
2023-05-10T13:32:28.274Z,3.20
2023-05-10T13:34:56.320Z,6.30
2023-05-10T13:37:24.038Z,3.30
2023-05-10T13:39:51.710Z,4.80
2023-05-10T13:42:19.406Z,6.00
2023-05-10T13:44:47.293Z,3.80
2023-05-10T13:47:14.876Z,2.50
2023-05-10T13:49:42.688Z,4.60
2023-05-10T13:52:11.148Z,4.10
2023-05-10T13:54:39.248Z,4.10
2023-05-10T13:57:07.650Z,4.10
2023-05-10T13:59:35.531Z,4.00
2023-05-10T14:02:03.679Z,3.20
2023-05-10T14:04:31.538Z,4.80
2023-05-10T14:06:59.237Z,5.00
2023-05-10T14:09:26.895Z,5.70
2023-05-10T14:11:54.563Z,3.60
2023-05-10T14:14:22.191Z,5.90
2023-05-10T14:16:49.874Z,4.80
2023-05-10T14:19:17.536Z,3.00
2023-05-10T14:21:45.402Z,5.30
2023-05-10T14:24:13.008Z,4.30
2023-05-10T14:26:40.630Z,3.40
2023-05-10T14:29:10.046Z,3.80
2023-05-10T14:31:40.014Z,7.70
2023-05-10T14:34:07.798Z,4.50
2023-05-10T14:36:38.141Z,4.70
2023-05-10T14:39:05.958Z,5.80
2023-05-10T14:41:34.102Z,4.60
2023-05-10T14:44:02.536Z,4.00
2023-05-10T14:46:31.067Z,5.40
2023-05-10T14:48:58.715Z,3.50
2023-05-10T14:51:26.318Z,3.20
2023-05-10T14:53:53.943Z,4.20
2023-05-10T14:56:22.418Z,5.90
2023-05-10T14:58:50.987Z,6.10
2023-05-10T15:01:20.080Z,4.20
2023-05-10T15:03:48.262Z,4.30
2023-05-10T15:06:19.614Z,6.10
2023-05-10T15:08:47.215Z,5.50
2023-05-10T15:11:14.840Z,4.20
2023-05-10T15:13:42.529Z,7.30
2023-05-10T15:16:10.498Z,4.90
2023-05-10T15:18:38.372Z,4.90
2023-05-10T15:21:06.214Z,5.30
2023-05-10T15:23:33.956Z,3.90
2023-05-10T15:26:01.831Z,3.20
2023-05-10T15:28:29.695Z,3.10
2023-05-10T15:30:57.570Z,4.40
2023-05-10T15:33:25.943Z,5.20
2023-05-10T15:35:54.714Z,4.90
2023-05-10T15:38:22.453Z,5.20
2023-05-10T15:40:50.167Z,5.90
2023-05-10T15:43:17.924Z,4.70
2023-05-10T15:45:45.555Z,5.40
2023-05-10T15:48:13.287Z,4.70
2023-05-10T15:50:41.419Z,7.70
2023-05-10T15:53:09.098Z,6.10
2023-05-10T15:55:37.543Z,5.50
2023-05-10T15:58:05.184Z,7.70
2023-05-10T16:00:32.829Z,4.90
2023-05-10T16:03:00.908Z,4.80
2023-05-10T16:05:32.624Z,5.50
2023-05-10T16:08:01.803Z,4.40
2023-05-10T16:10:33.144Z,3.40
2023-05-10T16:13:02.440Z,5.50
2023-05-10T16:15:30.068Z,6.70
2023-05-10T16:17:58.272Z,7.10
2023-05-10T16:20:26.766Z,5.00
2023-05-10T16:22:54.554Z,5.20
2023-05-10T16:25:22.424Z,7.00
2023-05-10T16:27:51.012Z,3.40
2023-05-10T16:30:18.778Z,5.10
2023-05-10T16:32:46.467Z,5.70
2023-05-10T16:35:14.242Z,6.40
2023-05-10T16:37:42.064Z,4.60
2023-05-10T16:40:10.552Z,7.50
2023-05-10T16:42:38.188Z,4.60
2023-05-10T16:45:09.964Z,5.20
2023-05-10T16:47:38.483Z,8.60
2023-05-10T16:50:07.656Z,25.00
2023-05-10T16:52:36.250Z,20.40
2023-05-10T16:55:04.602Z,5.70
2023-05-10T16:57:33.093Z,4.50
2023-05-10T17:00:01.121Z,7.50
2023-05-10T17:02:28.950Z,6.20
2023-05-10T17:04:56.995Z,13.30
2023-05-10T17:07:26.267Z,17.30
2023-05-10T17:09:54.040Z,9.10
2023-05-10T17:12:21.820Z,19.40
2023-05-10T17:14:49.554Z,5.30
2023-05-10T17:17:17.466Z,6.90
2023-05-10T17:19:45.866Z,4.10
2023-05-10T17:22:14.152Z,6.00
2023-05-10T17:24:41.896Z,13.50
2023-05-10T17:27:09.860Z,17.90
2023-05-10T17:29:37.732Z,8.90
2023-05-10T17:32:06.069Z,12.30
2023-05-10T17:34:33.876Z,5.80
2023-05-10T17:37:02.452Z,8.00
2023-05-10T17:39:30.518Z,4.70
2023-05-10T17:41:58.194Z,5.20
2023-05-10T17:44:26.165Z,13.70
2023-05-10T17:46:53.938Z,9.70
2023-05-10T17:49:21.603Z,11.80
2023-05-10T17:51:49.382Z,11.30
2023-05-10T17:54:17.197Z,10.00
2023-05-10T17:56:45.070Z,6.00
2023-05-10T17:59:12.813Z,5.60
2023-05-10T18:01:43.285Z,6.40
2023-05-10T18:04:11.299Z,8.80
2023-05-10T18:06:42.310Z,7.70
2023-05-10T18:09:12.138Z,14.10
2023-05-10T18:11:40.219Z,14.40
2023-05-10T18:14:07.886Z,12.60
2023-05-10T18:16:35.637Z,11.90
2023-05-10T18:19:03.967Z,10.70
2023-05-10T18:21:31.893Z,9.40
2023-05-10T18:23:59.934Z,6.10
2023-05-10T18:26:27.956Z,6.50
2023-05-10T18:28:55.633Z,7.20
2023-05-10T18:31:24.032Z,7.60
2023-05-10T18:33:52.215Z,7.60
2023-05-10T18:36:19.844Z,6.30
2023-05-10T18:38:47.641Z,8.90
2023-05-10T18:41:15.771Z,5.20
2023-05-10T18:43:43.770Z,5.10
2023-05-10T18:46:11.610Z,6.30
2023-05-10T18:48:39.514Z,6.60
2023-05-10T18:51:07.386Z,9.70
2023-05-10T18:53:35.464Z,11.80
2023-05-10T18:56:03.607Z,9.50
2023-05-10T18:58:31.454Z,6.20
2023-05-10T19:00:59.263Z,7.80
2023-05-10T19:03:27.304Z,7.60
2023-05-10T19:05:54.961Z,7.20
2023-05-10T19:08:23.045Z,9.90
2023-05-10T19:10:50.804Z,6.60
2023-05-10T19:13:18.568Z,7.90
2023-05-10T19:15:46.588Z,9.00
2023-05-10T19:18:16.148Z,6.80
2023-05-10T19:20:46.009Z,7.40
2023-05-10T19:23:16.506Z,8.70
2023-05-10T19:25:44.691Z,9.50
2023-05-10T19:28:12.829Z,8.70
2023-05-10T19:30:40.607Z,8.00
2023-05-10T19:33:10.211Z,8.30
2023-05-10T19:35:37.999Z,10.10
2023-05-10T19:38:05.626Z,6.70
2023-05-10T19:40:33.442Z,8.10
2023-05-10T19:43:01.127Z,6.70
2023-05-10T19:45:28.937Z,7.50
2023-05-10T19:47:56.599Z,7.60
2023-05-10T19:50:24.357Z,7.80
2023-05-10T19:52:52.514Z,9.40
2023-05-10T19:55:30.621Z,10.70
2023-05-10T19:58:00.636Z,9.60
2023-05-10T20:00:28.373Z,8.20
2023-05-10T20:02:56.069Z,8.30
2023-05-10T20:05:23.831Z,8.90
2023-05-10T20:07:51.693Z,7.80
2023-05-10T20:10:19.773Z,8.50
2023-05-10T20:12:52.477Z,8.90
2023-05-10T20:15:21.877Z,10.90
2023-05-10T20:17:51.274Z,8.70
2023-05-10T20:20:20.445Z,7.30
2023-05-10T20:22:48.578Z,7.20
2023-05-10T20:25:17.077Z,9.80
2023-05-10T20:27:44.788Z,8.50
2023-05-10T20:30:13.078Z,8.80
2023-05-10T20:32:40.954Z,8.90
2023-05-10T20:35:09.409Z,8.70
2023-05-10T20:37:37.896Z,7.10
2023-05-10T20:40:06.126Z,7.00
2023-05-10T20:42:33.723Z,10.00
2023-05-10T20:45:01.590Z,7.60
2023-05-10T20:47:29.223Z,6.60
2023-05-10T20:49:56.847Z,8.60
2023-05-10T20:52:24.733Z,9.50
2023-05-10T20:54:52.346Z,6.60
2023-05-10T20:57:20.206Z,9.60
2023-05-10T20:59:49.923Z,7.20
2023-05-10T21:02:17.681Z,8.10
2023-05-10T21:04:45.331Z,9.30
2023-05-10T21:07:13.038Z,10.80
2023-05-10T21:09:40.630Z,10.20
2023-05-10T21:12:09.166Z,6.80
2023-05-10T21:14:36.789Z,7.60
2023-05-10T21:17:04.476Z,9.40
2023-05-10T21:19:32.174Z,6.70
2023-05-10T21:21:59.856Z,8.60
2023-05-10T21:24:27.534Z,10.30
2023-05-10T21:26:55.141Z,10.40
2023-05-10T21:29:22.736Z,8.80
2023-05-10T21:31:50.603Z,9.30
2023-05-10T21:34:18.318Z,6.20
2023-05-10T21:36:45.995Z,9.80
2023-05-10T21:39:13.851Z,10.40
2023-05-10T21:41:42.139Z,9.30
2023-05-10T21:44:09.822Z,6.30
2023-05-10T21:46:37.426Z,6.70
2023-05-10T21:49:05.109Z,10.20
2023-05-10T21:51:32.708Z,7.60
2023-05-10T21:54:00.301Z,7.60
2023-05-10T21:56:27.914Z,7.90
2023-05-10T21:58:55.767Z,8.60
2023-05-10T22:01:23.487Z,8.80
2023-05-10T22:03:51.240Z,7.30
2023-05-10T22:06:18.907Z,8.00
2023-05-10T22:08:46.480Z,6.70
2023-05-10T22:11:14.094Z,5.60
2023-05-10T22:13:41.684Z,8.50
2023-05-10T22:16:09.304Z,6.10
2023-05-10T22:18:36.966Z,7.90
2023-05-10T22:21:04.783Z,8.90
2023-05-10T22:23:32.484Z,9.20
2023-05-10T22:26:02.700Z,7.80
2023-05-10T22:28:30.471Z,12.90
2023-05-10T22:30:58.191Z,8.60
2023-05-10T22:33:25.898Z,10.00
2023-05-10T22:35:53.559Z,7.60
2023-05-10T22:38:21.506Z,8.10
2023-05-10T22:40:49.159Z,9.60
2023-05-10T22:43:17.259Z,7.70
2023-05-10T22:45:44.864Z,7.70
2023-05-10T22:48:12.690Z,9.50
2023-05-10T22:50:40.285Z,8.60
2023-05-10T22:53:08.051Z,9.80
2023-05-10T22:55:36.514Z,8.20
2023-05-10T22:58:04.098Z,9.60
2023-05-10T23:00:31.788Z,12.90
2023-05-10T23:03:00.010Z,8.50
2023-05-10T23:05:27.977Z,8.90
2023-05-10T23:07:55.581Z,8.70
2023-05-10T23:10:23.385Z,9.70
2023-05-10T23:12:51.461Z,8.50
2023-05-10T23:15:19.074Z,8.00
2023-05-10T23:17:47.087Z,8.10
2023-05-10T23:20:16.172Z,9.60
2023-05-10T23:22:44.168Z,10.10
2023-05-10T23:25:11.814Z,8.10
2023-05-10T23:27:39.404Z,8.10
2023-05-10T23:30:07.982Z,9.70
2023-05-10T23:32:35.883Z,8.50
2023-05-10T23:35:03.759Z,6.40
2023-05-10T23:37:31.375Z,8.90
2023-05-10T23:39:59.104Z,7.70
2023-05-10T23:42:26.895Z,7.80
2023-05-10T23:44:54.673Z,7.70
2023-05-10T23:47:22.297Z,10.10
2023-05-10T23:49:50.314Z,10.90
2023-05-10T23:52:17.955Z,9.90
2023-05-10T23:54:46.043Z,8.70
2023-05-10T23:57:13.943Z,10.00
2023-05-10T23:59:41.559Z,9.50
